Time;durP1;ratioP1;P1;durP2;ratioP2;P2;SDS_P1;SDS_P2;PMS_P1;PMS_P2;Temp;Humidity;BMP_temperature;BMP_pressure;BME280_temperature;BME280_humidity;BME280_pressure;Samples;Min_cycle;Max_cycle;Signal;HPM_P1;HPM_P2
2022/01/10 00:00:18;;;;;;;3.85;3.42;;;;;;;;;;4846386;29;34437;-72
2022/01/10 00:02:49;;;;;;;4.32;3.40;;;;;;;;;;4846981;29;32427;-72
2022/01/10 00:05:18;;;;;;;4.97;3.40;;;;;;;;;;4848779;29;32493;-72
2022/01/10 00:07:46;;;;;;;4.03;3.72;;;;;;;;;;4848445;29;32430;-72
2022/01/10 00:10:15;;;;;;;3.72;3.42;;;;;;;;;;4848856;29;33911;-73
2022/01/10 00:12:43;;;;;;;3.55;3.25;;;;;;;;;;4848939;29;32181;-73
2022/01/10 00:15:15;;;;;;;3.83;3.42;;;;;;;;;;4848826;29;32335;-73
2022/01/10 00:17:44;;;;;;;3.40;3.20;;;;;;;;;;4842852;29;32596;-74
2022/01/10 00:20:16;;;;;;;3.65;3.35;;;;;;;;;;4848470;29;32418;-73
2022/01/10 00:22:46;;;;;;;5.20;3.30;;;;;;;;;;4845958;29;35621;-73
2022/01/10 00:25:18;;;;;;;3.00;2.80;;;;;;;;;;4830221;29;32220;-75
2022/01/10 00:27:47;;;;;;;4.82;3.55;;;;;;;;;;4830287;29;32399;-71
2022/01/10 00:30:16;;;;;;;3.33;3.13;;;;;;;;;;4829513;29;32332;-73
2022/01/10 00:32:45;;;;;;;3.58;3.30;;;;;;;;;;4831269;29;34842;-71
2022/01/10 00:35:14;;;;;;;3.28;2.97;;;;;;;;;;4846654;29;33221;-76
2022/01/10 00:37:43;;;;;;;3.38;3.05;;;;;;;;;;4847164;29;32477;-76
2022/01/10 00:40:15;;;;;;;2.72;2.53;;;;;;;;;;4847830;29;32467;-78
2022/01/10 00:42:52;;;;;;;3.17;2.97;;;;;;;;;;4846528;29;32496;-83
2022/01/10 00:45:23;;;;;;;3.88;3.42;;;;;;;;;;4827562;29;34966;-75
2022/01/10 00:47:51;;;;;;;3.70;3.15;;;;;;;;;;4828054;29;32428;-75
2022/01/10 00:50:20;;;;;;;3.08;2.75;;;;;;;;;;4827629;29;32398;-72
2022/01/10 00:52:48;;;;;;;3.17;2.83;;;;;;;;;;4827552;29;32879;-73
2022/01/10 00:55:18;;;;;;;2.50;2.30;;;;;;;;;;4826708;29;34192;-73
2022/01/10 00:57:46;;;;;;;3.40;3.10;;;;;;;;;;4825927;29;32812;-74
2022/01/10 01:00:17;;;;;;;3.65;2.65;;;;;;;;;;4826675;29;32371;-74
2022/01/10 01:02:45;;;;;;;4.50;2.92;;;;;;;;;;4826762;29;32516;-71
2022/01/10 01:05:18;;;;;;;2.90;2.67;;;;;;;;;;4827353;29;32385;-74
2022/01/10 01:07:46;;;;;;;3.47;2.90;;;;;;;;;;4826426;29;34041;-73
2022/01/10 01:10:48;;;;;;;3.25;2.95;;;;;;;;;;4829082;29;32214;-75
2022/01/10 01:13:24;;;;;;;2.50;2.30;;;;;;;;;;4828190;29;32444;-73
2022/01/10 01:24:26;;;;;;;3.70;2.35;;;;;;;;;;4799873;29;32398;-74
2022/01/10 01:26:56;;;;;;;3.00;2.60;;;;;;;;;;4838353;29;32609;-74
2022/01/10 01:29:26;;;;;;;2.58;2.38;;;;;;;;;;4840800;29;32796;-73
2022/01/10 01:31:55;;;;;;;2.80;2.60;;;;;;;;;;4823692;29;34786;-76
2022/01/10 01:34:25;;;;;;;2.78;2.58;;;;;;;;;;4845073;29;32436;-73
2022/01/10 01:36:55;;;;;;;2.63;2.42;;;;;;;;;;4843960;29;32454;-75
2022/01/10 01:39:28;;;;;;;3.45;2.60;;;;;;;;;;4827678;29;32670;-73
2022/01/10 01:42:04;;;;;;;2.80;2.55;;;;;;;;;;4836616;29;35267;-73
2022/01/10 01:44:33;;;;;;;3.42;2.83;;;;;;;;;;4849293;29;32374;-73
2022/01/10 01:47:01;;;;;;;2.70;2.50;;;;;;;;;;4847306;29;32450;-73
2022/01/10 01:49:30;;;;;;;4.40;2.78;;;;;;;;;;4850027;29;32492;-73
2022/01/10 01:51:58;;;;;;;2.55;2.35;;;;;;;;;;4849594;29;32347;-74
2022/01/10 01:54:26;;;;;;;2.97;2.30;;;;;;;;;;4850309;29;33924;-73
2022/01/10 01:56:54;;;;;;;3.58;2.47;;;;;;;;;;4850085;29;33001;-74
2022/01/10 01:59:24;;;;;;;2.83;2.20;;;;;;;;;;4850012;29;32229;-73
2022/01/10 02:01:52;;;;;;;2.65;2.45;;;;;;;;;;4847266;29;32488;-75
2022/01/10 02:04:20;;;;;;;8.63;2.90;;;;;;;;;;4848576;29;34288;-73
2022/01/10 02:06:48;;;;;;;2.70;2.45;;;;;;;;;;4844499;29;32846;-73
2022/01/10 02:09:16;;;;;;;3.50;2.90;;;;;;;;;;4848855;29;32425;-71
2022/01/10 02:11:44;;;;;;;4.18;2.63;;;;;;;;;;4847561;29;32486;-73
2022/01/10 02:14:12;;;;;;;2.65;2.40;;;;;;;;;;4848684;29;32537;-73
2022/01/10 02:16:43;;;;;;;2.55;2.33;;;;;;;;;;4849974;29;34084;-73
2022/01/10 02:19:11;;;;;;;;;;;;;;;;;;4850283;29;32360;-74
2022/01/10 02:21:41;;;;;;;2.40;2.20;;;;;;;;;;4838963;29;32146;-72
2022/01/10 02:24:09;;;;;;;2.58;2.38;;;;;;;;;;4830276;29;32478;-73
2022/01/10 02:26:39;;;;;;;2.42;2.17;;;;;;;;;;4831494;29;34617;-73
2022/01/10 02:29:08;;;;;;;2.28;2.17;;;;;;;;;;4828761;29;32348;-72
2022/01/10 02:31:39;;;;;;;4.75;2.60;;;;;;;;;;4829047;29;32498;-72
2022/01/10 02:34:07;;;;;;;3.30;2.63;;;;;;;;;;4819825;29;32650;-72
2022/01/10 02:36:35;;;;;;;2.72;2.38;;;;;;;;;;4836617;29;32406;-72
2022/01/10 02:39:09;;;;;;;3.95;2.50;;;;;;;;;;4828936;29;34044;-72
2022/01/10 02:41:40;;;;;;;2.35;2.15;;;;;;;;;;4842242;29;32470;-73
2022/01/10 02:44:11;;;;;;;2.65;2.20;;;;;;;;;;4833831;29;32594;-76
2022/01/10 02:46:41;;;;;;;3.08;2.50;;;;;;;;;;4831326;29;32516;-78
2022/01/10 02:49:11;;;;;;;6.55;2.63;;;;;;;;;;4831402;29;34948;-74
2022/01/10 02:51:40;;;;;;;3.10;2.50;;;;;;;;;;4841627;29;32463;-77
2022/01/10 02:54:10;;;;;;;3.17;2.85;;;;;;;;;;4848865;29;32463;-73
2022/01/10 02:56:47;;;;;;;3.33;2.33;;;;;;;;;;4848092;29;32431;-73
2022/01/10 02:59:15;;;;;;;6.93;2.45;;;;;;;;;;4715122;29;32127;-73
2022/01/10 03:01:44;;;;;;;2.78;2.58;;;;;;;;;;4839872;29;35744;-72
2022/01/10 03:04:12;;;;;;;3.35;3.05;;;;;;;;;;4840441;29;32450;-72
2022/01/10 03:06:41;;;;;;;2.85;2.38;;;;;;;;;;4847321;29;32558;-72
2022/01/10 03:09:11;;;;;;;3.70;2.38;;;;;;;;;;4834012;29;32612;-71
2022/01/10 03:11:41;;;;;;;2.50;2.30;;;;;;;;;;4829497;29;34738;-75
2022/01/10 03:14:11;;;;;;;4.88;2.40;;;;;;;;;;4837076;29;32390;-69
2022/01/10 03:16:40;;;;;;;2.67;2.45;;;;;;;;;;4846812;29;32266;-71
2022/01/10 03:19:08;;;;;;;2.90;2.70;;;;;;;;;;4845241;29;32485;-71
2022/01/10 03:21:36;;;;;;;3.30;3.00;;;;;;;;;;4845545;29;32394;-72
2022/01/10 03:24:04;;;;;;;3.42;2.60;;;;;;;;;;4847415;29;35035;-70
2022/01/10 03:26:34;;;;;;;3.20;2.90;;;;;;;;;;4847585;29;32383;-72
2022/01/10 03:29:02;;;;;;;3.47;2.50;;;;;;;;;;4845782;29;32402;-72
2022/01/10 03:31:30;;;;;;;2.70;2.50;;;;;;;;;;4839406;29;32259;-73
2022/01/10 03:33:58;;;;;;;6.80;2.78;;;;;;;;;;4829383;29;35523;-72
2022/01/10 03:36:26;;;;;;;4.97;2.75;;;;;;;;;;4828289;29;32604;-71
2022/01/10 03:38:54;;;;;;;5.07;2.65;;;;;;;;;;4828368;29;32530;-72
2022/01/10 03:41:22;;;;;;;3.20;2.92;;;;;;;;;;4829173;29;32455;-71
2022/01/10 03:43:52;;;;;;;3.55;2.42;;;;;;;;;;4831177;29;32464;-72
2022/01/10 03:46:20;;;;;;;2.75;2.55;;;;;;;;;;4830755;29;34763;-72
2022/01/10 03:48:48;;;;;;;3.03;2.70;;;;;;;;;;4829370;29;32332;-71
2022/01/10 03:51:16;;;;;;;2.63;2.42;;;;;;;;;;4828710;29;32776;-71
2022/01/10 03:53:44;;;;;;;5.13;3.00;;;;;;;;;;4830240;29;32438;-70
2022/01/10 03:56:12;;;;;;;2.70;2.50;;;;;;;;;;4829999;29;34751;-71
2022/01/10 03:58:40;;;;;;;3.33;2.55;;;;;;;;;;4830000;29;32132;-71
2022/01/10 04:01:12;;;;;;;2.50;2.30;;;;;;;;;;4830316;29;32320;-71
2022/01/10 04:03:40;;;;;;;2.45;2.25;;;;;;;;;;4830504;29;32492;-71
2022/01/10 04:06:09;;;;;;;2.60;2.40;;;;;;;;;;4830247;29;32420;-72
2022/01/10 04:08:37;;;;;;;7.00;2.63;;;;;;;;;;4830486;29;34820;-72
2022/01/10 04:11:06;;;;;;;3.65;2.80;;;;;;;;;;4845872;29;32480;-72
2022/01/10 04:13:34;;;;;;;3.22;2.60;;;;;;;;;;4848123;29;32314;-71
2022/01/10 04:16:02;;;;;;;2.85;2.25;;;;;;;;;;4848253;29;32537;-71
2022/01/10 04:18:32;;;;;;;2.55;2.35;;;;;;;;;;4847485;29;35232;-71
2022/01/10 04:21:00;;;;;;;2.85;2.45;;;;;;;;;;4848222;29;32528;-71
2022/01/10 04:23:28;;;;;;;6.25;2.10;;;;;;;;;;4848897;29;32500;-71
2022/01/10 04:25:56;;;;;;;3.17;2.40;;;;;;;;;;4848679;29;32300;-71
2022/01/10 04:28:24;;;;;;;2.97;2.28;;;;;;;;;;4848712;29;32434;-71
2022/01/10 04:30:52;;;;;;;2.40;2.20;;;;;;;;;;4848641;29;34213;-71
2022/01/10 04:33:21;;;;;;;3.00;2.45;;;;;;;;;;4848637;29;32439;-70
2022/01/10 04:35:50;;;;;;;2.38;2.17;;;;;;;;;;4848567;29;32305;-71
2022/01/10 04:38:18;;;;;;;3.13;2.85;;;;;;;;;;4848349;29;32356;-71
2022/01/10 04:40:47;;;;;;;3.10;2.70;;;;;;;;;;4848446;29;34240;-71
2022/01/10 04:43:15;;;;;;;3.88;2.25;;;;;;;;;;4847357;29;32483;-71
2022/01/10 04:45:43;;;;;;;4.90;2.65;;;;;;;;;;4848716;29;32235;-71
2022/01/10 04:48:11;;;;;;;3.20;2.88;;;;;;;;;;4847208;29;32395;-72
2022/01/10 04:51:10;;;;;;;2.60;2.40;;;;;;;;;;4848015;29;32465;-71
2022/01/10 04:53:35;;;;;;;4.70;2.80;;;;;;;;;;4848456;29;34503;-71
2022/01/10 04:56:03;;;;;;;2.33;2.05;;;;;;;;;;4848046;29;32351;-71
2022/01/10 04:58:31;;;;;;;4.28;2.58;;;;;;;;;;4848697;29;32356;-71
2022/01/10 05:00:59;;;;;;;4.68;2.83;;;;;;;;;;4848252;29;32364;-72
2022/01/10 05:03:27;;;;;;;3.17;2.00;;;;;;;;;;4847989;29;34571;-71
2022/01/10 05:05:55;;;;;;;3.05;2.25;;;;;;;;;;4847995;29;32387;-71
2022/01/10 05:08:23;;;;;;;3.08;2.28;;;;;;;;;;4847709;29;32223;-70
2022/01/10 05:10:54;;;;;;;2.28;2.17;;;;;;;;;;4848539;29;32614;-71
2022/01/10 05:13:22;;;;;;;2.72;2.53;;;;;;;;;;4848698;29;32360;-70
2022/01/10 05:15:51;;;;;;;2.53;2.33;;;;;;;;;;4848160;29;34844;-71
2022/01/10 05:18:20;;;;;;;2.38;2.15;;;;;;;;;;4847259;29;32230;-71
2022/01/10 05:20:49;;;;;;;3.70;2.42;;;;;;;;;;4847314;29;32790;-70
2022/01/10 05:23:18;;;;;;;2.22;2.00;;;;;;;;;;4848264;29;32467;-71
2022/01/10 05:25:46;;;;;;;4.10;2.38;;;;;;;;;;4847800;29;34001;-71
2022/01/10 05:28:19;;;;;;;2.38;2.20;;;;;;;;;;4848096;29;32227;-70
2022/01/10 05:30:48;;;;;;;2.92;2.53;;;;;;;;;;4847649;29;32395;-70
2022/01/10 05:33:16;;;;;;;4.70;2.47;;;;;;;;;;4847661;29;32521;-70
2022/01/10 05:35:45;;;;;;;2.70;2.50;;;;;;;;;;4847969;29;32605;-71
2022/01/10 05:38:13;;;;;;;3.65;2.67;;;;;;;;;;4847865;29;35769;-70
2022/01/10 05:40:42;;;;;;;2.70;2.50;;;;;;;;;;4847728;29;32285;-70
2022/01/10 05:43:11;;;;;;;2.55;2.30;;;;;;;;;;4847797;29;32515;-72
2022/01/10 05:45:44;;;;;;;4.03;2.25;;;;;;;;;;4846833;29;32338;-71
2022/01/10 05:48:20;;;;;;;4.57;1.90;;;;;;;;;;4847752;29;33924;-70
2022/01/10 05:50:48;;;;;;;2.83;2.28;;;;;;;;;;4833221;29;32501;-70
2022/01/10 05:53:16;;;;;;;4.03;2.35;;;;;;;;;;4831641;29;32521;-71
2022/01/10 05:55:44;;;;;;;2.55;2.10;;;;;;;;;;4847524;29;32423;-70
2022/01/10 05:58:12;;;;;;;2.50;2.30;;;;;;;;;;4847520;29;32434;-70
2022/01/10 06:00:42;;;;;;;2.80;2.17;;;;;;;;;;4847213;29;35290;-70
2022/01/10 06:03:10;;;;;;;2.72;1.92;;;;;;;;;;4847784;29;32609;-72
2022/01/10 06:05:38;;;;;;;3.30;1.90;;;;;;;;;;4847537;29;32530;-71
2022/01/10 06:08:08;;;;;;;2.58;2.38;;;;;;;;;;4847691;29;32431;-72
2022/01/10 06:10:37;;;;;;;3.83;2.60;;;;;;;;;;4847240;29;34856;-71
2022/01/10 06:13:05;;;;;;;2.60;2.40;;;;;;;;;;4847241;29;32402;-70
2022/01/10 06:15:34;;;;;;;1.83;1.63;;;;;;;;;;4846947;29;32462;-71
2022/01/10 06:18:03;;;;;;;8.13;2.65;;;;;;;;;;4847108;29;32386;-71
2022/01/10 06:20:31;;;;;;;2.30;1.80;;;;;;;;;;4845593;29;32427;-71
2022/01/10 06:22:59;;;;;;;2.92;2.35;;;;;;;;;;4846326;29;34245;-71
2022/01/10 06:25:28;;;;;;;3.40;2.28;;;;;;;;;;4847066;29;32457;-72
2022/01/10 06:27:57;;;;;;;4.68;2.58;;;;;;;;;;4846524;29;32463;-72
2022/01/10 06:30:25;;;;;;;4.68;2.10;;;;;;;;;;4849516;29;33032;-70
2022/01/10 06:32:56;;;;;;;2.30;2.03;;;;;;;;;;4849840;29;34528;-71
2022/01/10 06:35:28;;;;;;;8.05;2.70;;;;;;;;;;4850095;29;32359;-70
2022/01/10 06:37:56;;;;;;;4.53;2.63;;;;;;;;;;4850227;29;32490;-72
2022/01/10 06:40:25;;;;;;;6.47;2.58;;;;;;;;;;4833106;29;32479;-71
2022/01/10 06:42:53;;;;;;;3.20;2.88;;;;;;;;;;4834981;29;32232;-71
2022/01/10 06:45:22;;;;;;;3.15;2.85;;;;;;;;;;4830870;29;34208;-72
2022/01/10 06:47:50;;;;;;;3.45;3.15;;;;;;;;;;4831400;29;32347;-72
2022/01/10 06:50:18;;;;;;;3.00;2.78;;;;;;;;;;4831212;29;32370;-72
2022/01/10 06:52:50;;;;;;;8.00;2.50;;;;;;;;;;4831803;29;32329;-72
2022/01/10 06:55:18;;;;;;;3.00;2.30;;;;;;;;;;4831359;29;35301;-73
2022/01/10 06:57:46;;;;;;;6.45;2.83;;;;;;;;;;4830721;29;32526;-72
2022/01/10 07:00:16;;;;;;;5.53;2.60;;;;;;;;;;4831007;29;32371;-72
2022/01/10 07:02:44;;;;;;;4.40;3.00;;;;;;;;;;4831622;29;32547;-73
2022/01/10 07:05:12;;;;;;;6.47;3.03;;;;;;;;;;4831573;29;32448;-72
2022/01/10 07:07:40;;;;;;;5.45;2.53;;;;;;;;;;4830982;29;32662;-72
2022/01/10 07:10:10;;;;;;;3.72;2.78;;;;;;;;;;4829753;29;32532;-72
2022/01/10 07:12:38;;;;;;;7.35;2.65;;;;;;;;;;4831259;29;32320;-72
2022/01/10 07:15:08;;;;;;;3.20;2.50;;;;;;;;;;4831389;29;32399;-71
2022/01/10 07:17:36;;;;;;;3.03;2.83;;;;;;;;;;4831123;29;34207;-72
2022/01/10 07:20:06;;;;;;;2.97;2.78;;;;;;;;;;4830163;29;32471;-71
2022/01/10 07:22:34;;;;;;;3.10;2.83;;;;;;;;;;4830999;29;32438;-72
2022/01/10 07:25:02;;;;;;;4.07;2.85;;;;;;;;;;4831175;29;32379;-72
2022/01/10 07:27:33;;;;;;;3.75;2.70;;;;;;;;;;4830824;29;32562;-71
2022/01/10 07:30:02;;;;;;;3.80;3.50;;;;;;;;;;4830853;29;32498;-71
2022/01/10 07:32:31;;;;;;;4.22;3.10;;;;;;;;;;4830638;29;32339;-72
2022/01/10 07:35:00;;;;;;;4.88;2.97;;;;;;;;;;4846139;29;32461;-72
2022/01/10 07:37:28;;;;;;;4.15;2.83;;;;;;;;;;4849541;29;32209;-71
2022/01/10 07:39:56;;;;;;;3.03;2.72;;;;;;;;;;4848415;29;35274;-71
2022/01/10 07:42:24;;;;;;;3.33;3.03;;;;;;;;;;4835557;29;32719;-72
2022/01/10 07:44:56;;;;;;;3.83;3.10;;;;;;;;;;4830390;29;32233;-71
2022/01/10 07:47:23;;;;;;;;;;;;;;;;;;4829006;29;32318;-72
2022/01/10 07:49:52;;;;;;;5.75;3.22;;;;;;;;;;4830372;29;32465;-72
2022/01/10 07:52:21;;;;;;;3.80;3.50;;;;;;;;;;4828858;29;32464;-72
2022/01/10 07:54:49;;;;;;;3.53;3.22;;;;;;;;;;4830397;29;32313;-72
2022/01/10 07:57:17;;;;;;;4.00;2.67;;;;;;;;;;4830650;29;32306;-71
2022/01/10 07:59:45;;;;;;;3.50;3.20;;;;;;;;;;4830635;29;32409;-71
2022/01/10 08:02:20;;;;;;;4.40;3.42;;;;;;;;;;4830475;29;34799;-71
2022/01/10 08:04:48;;;;;;;3.55;3.25;;;;;;;;;;4830098;29;32452;-72
2022/01/10 08:07:16;;;;;;;4.18;3.40;;;;;;;;;;4830352;29;32468;-71
2022/01/10 08:09:46;;;;;;;4.15;3.35;;;;;;;;;;4835521;29;32461;-73
2022/01/10 08:12:14;;;;;;;3.40;3.05;;;;;;;;;;4848701;29;32516;-71
2022/01/10 08:14:43;;;;;;;3.30;3.00;;;;;;;;;;4847097;29;32626;-70
2022/01/10 08:17:11;;;;;;;3.75;3.45;;;;;;;;;;4846682;29;32354;-72
2022/01/10 08:19:40;;;;;;;3.63;2.70;;;;;;;;;;4847349;29;32757;-72
2022/01/10 08:22:08;;;;;;;3.35;3.05;;;;;;;;;;4848473;29;32300;-71
2022/01/10 08:24:36;;;;;;;3.35;2.97;;;;;;;;;;4848607;29;35217;-72
2022/01/10 08:27:05;;;;;;;3.55;3.20;;;;;;;;;;4848488;29;32513;-72
2022/01/10 08:29:33;;;;;;;3.05;2.85;;;;;;;;;;4847110;29;32406;-72
2022/01/10 08:32:01;;;;;;;3.70;3.35;;;;;;;;;;4848212;29;32364;-72
2022/01/10 08:34:29;;;;;;;3.17;2.88;;;;;;;;;;4848437;29;32344;-70
2022/01/10 08:36:58;;;;;;;4.65;3.10;;;;;;;;;;4848316;29;32379;-71
2022/01/10 08:39:26;;;;;;;5.22;3.28;;;;;;;;;;4847651;29;32435;-73
2022/01/10 08:41:54;;;;;;;3.15;2.90;;;;;;;;;;4848043;29;32457;-73
2022/01/10 08:44:22;;;;;;;3.60;3.30;;;;;;;;;;4847834;29;32636;-73
2022/01/10 08:46:50;;;;;;;3.28;2.90;;;;;;;;;;4848064;29;34834;-71
2022/01/10 08:49:18;;;;;;;3.03;2.72;;;;;;;;;;4847293;29;32534;-73
2022/01/10 08:51:49;;;;;;;3.42;3.13;;;;;;;;;;4848313;29;32510;-73
2022/01/10 08:54:19;;;;;;;3.63;3.33;;;;;;;;;;4847560;29;32330;-73
2022/01/10 08:56:47;;;;;;;3.53;3.22;;;;;;;;;;4848536;29;32516;-72
2022/01/10 08:59:15;;;;;;;2.75;2.55;;;;;;;;;;4848506;29;32487;-73
2022/01/10 09:01:43;;;;;;;3.50;3.20;;;;;;;;;;4846634;29;32403;-73
2022/01/10 09:04:15;;;;;;;2.92;2.70;;;;;;;;;;4848642;29;32584;-72
2022/01/10 09:06:45;;;;;;;4.47;3.35;;;;;;;;;;4834476;29;32253;-71
2022/01/10 09:09:14;;;;;;;3.92;3.00;;;;;;;;;;4829519;29;35096;-73
2022/01/10 09:11:44;;;;;;;3.25;2.65;;;;;;;;;;4829984;29;32521;-72
2022/01/10 09:14:13;;;;;;;2.72;2.53;;;;;;;;;;4838261;29;32399;-72
2022/01/10 09:16:42;;;;;;;3.58;3.30;;;;;;;;;;4848643;29;32333;-73
2022/01/10 09:19:10;;;;;;;3.40;3.08;;;;;;;;;;4847486;29;35833;-71
2022/01/10 09:21:38;;;;;;;4.65;3.20;;;;;;;;;;4846020;29;32438;-73
2022/01/10 09:24:07;;;;;;;3.13;2.92;;;;;;;;;;4847877;29;32454;-71
2022/01/10 09:26:36;;;;;;;3.13;2.92;;;;;;;;;;4847785;29;32423;-72
2022/01/10 09:29:05;;;;;;;3.15;2.80;;;;;;;;;;4848028;29;32419;-73
2022/01/10 09:31:33;;;;;;;5.15;2.83;;;;;;;;;;4847506;29;34659;-71
2022/01/10 09:34:02;;;;;;;3.22;2.90;;;;;;;;;;4847785;29;32383;-71
2022/01/10 09:36:34;;;;;;;3.40;3.10;;;;;;;;;;4847516;29;32653;-72
2022/01/10 09:39:03;;;;;;;3.28;3.00;;;;;;;;;;4847286;29;32376;-71
2022/01/10 09:41:31;;;;;;;4.43;2.85;;;;;;;;;;4847256;29;34923;-71
2022/01/10 09:44:02;;;;;;;3.28;2.97;;;;;;;;;;4845973;29;32552;-72
2022/01/10 09:46:33;;;;;;;3.55;2.65;;;;;;;;;;4847371;29;32249;-71
2022/01/10 09:49:02;;;;;;;3.55;3.25;;;;;;;;;;4846773;29;32483;-72
2022/01/10 09:51:32;;;;;;;6.47;3.17;;;;;;;;;;4847777;29;32867;-72
2022/01/10 09:54:03;;;;;;;3.15;2.88;;;;;;;;;;4838717;29;34255;-72
2022/01/10 09:56:32;;;;;;;3.00;2.75;;;;;;;;;;4829100;29;32501;-72
2022/01/10 09:59:00;;;;;;;5.03;2.95;;;;;;;;;;4828360;29;32440;-71
2022/01/10 10:01:31;;;;;;;3.72;3.20;;;;;;;;;;4829233;29;32470;-73
2022/01/10 10:04:00;;;;;;;5.03;2.63;;;;;;;;;;4829651;29;35498;-73
2022/01/10 10:06:30;;;;;;;4.05;3.35;;;;;;;;;;4830370;29;32258;-73
2022/01/10 10:09:01;;;;;;;3.65;3.33;;;;;;;;;;4831564;29;32241;-71
2022/01/10 10:11:41;;;;;;;3.17;2.88;;;;;;;;;;4831327;29;32439;-72
2022/01/10 10:14:11;;;;;;;3.63;3.33;;;;;;;;;;4831817;29;32510;-72
2022/01/10 10:16:48;;;;;;;3.97;2.90;;;;;;;;;;4831431;29;34457;-71
2022/01/10 10:19:17;;;;;;;3.42;3.13;;;;;;;;;;4831918;29;32462;-71
2022/01/10 10:21:46;;;;;;;3.25;2.85;;;;;;;;;;4831706;29;32521;-72
2022/01/10 10:24:14;;;;;;;3.53;3.03;;;;;;;;;;4831798;29;32533;-72
2022/01/10 10:26:42;;;;;;;6.15;3.25;;;;;;;;;;4831411;29;35603;-72
2022/01/10 10:29:13;;;;;;;3.10;2.85;;;;;;;;;;4831681;29;32647;-72
2022/01/10 10:31:47;;;;;;;3.70;3.22;;;;;;;;;;4831718;29;32618;-72
2022/01/10 10:34:20;;;;;;;3.30;3.00;;;;;;;;;;4831312;29;32491;-74
2022/01/10 10:37:01;;;;;;;5.85;3.75;;;;;;;;;;4831513;29;32539;-72
2022/01/10 10:39:30;;;;;;;3.47;3.10;;;;;;;;;;4831479;29;35443;-72
2022/01/10 10:42:01;;;;;;;3.13;2.92;;;;;;;;;;4830831;29;32769;-73
2022/01/10 10:44:30;;;;;;;3.95;3.42;;;;;;;;;;4831743;29;32523;-73
2022/01/10 10:47:00;;;;;;;3.83;3.53;;;;;;;;;;4831176;29;32522;-72
2022/01/10 10:49:32;;;;;;;4.78;3.47;;;;;;;;;;4831137;29;34382;-72
2022/01/10 10:52:03;;;;;;;3.83;3.15;;;;;;;;;;4831232;29;32670;-73
2022/01/10 10:54:32;;;;;;;3.92;3.03;;;;;;;;;;4831294;29;32253;-72
2022/01/10 10:57:02;;;;;;;5.20;3.42;;;;;;;;;;4830870;29;32282;-72
2022/01/10 10:59:34;;;;;;;3.72;3.42;;;;;;;;;;4831337;29;32412;-70
2022/01/10 11:02:05;;;;;;;5.93;3.35;;;;;;;;;;4831089;29;33923;-72
2022/01/10 11:04:33;;;;;;;4.03;3.65;;;;;;;;;;4830838;29;32506;-71
2022/01/10 11:07:02;;;;;;;3.35;3.00;;;;;;;;;;4831088;29;32348;-72
2022/01/10 11:09:30;;;;;;;3.75;3.45;;;;;;;;;;4830719;29;32473;-73
2022/01/10 11:11:58;;;;;;;7.30;3.63;;;;;;;;;;4829409;29;37244;-72
2022/01/10 11:14:26;;;;;;;5.13;3.50;;;;;;;;;;4830574;29;32407;-72
2022/01/10 11:16:56;;;;;;;5.35;3.72;;;;;;;;;;4829940;29;32194;-72
2022/01/10 11:19:27;;;;;;;4.40;4.05;;;;;;;;;;4830265;29;32478;-73
2022/01/10 11:22:07;;;;;;;3.42;3.22;;;;;;;;;;4831544;29;32403;-72
2022/01/10 11:24:48;;;;;;;4.00;3.58;;;;;;;;;;4830685;29;34240;-72
2022/01/10 11:27:30;;;;;;;4.18;3.85;;;;;;;;;;4828746;29;32617;-72
2022/01/10 11:29:58;;;;;;;;;;;;;;;;;;4831130;29;32501;-72
2022/01/10 11:32:56;;;;;;;3.25;2.95;;;;;;;;;;4830796;29;32215;-71
2022/01/10 11:35:27;;;;;;;3.15;2.90;;;;;;;;;;4828942;29;33968;-71
2022/01/10 11:37:55;;;;;;;;;;;;;;;;;;4830932;29;32364;-71
2022/01/10 11:40:25;;;;;;;5.38;3.17;;;;;;;;;;4830367;29;32408;-73
2022/01/10 11:42:59;;;;;;;4.75;3.10;;;;;;;;;;4829861;29;32305;-72
2022/01/10 11:45:28;;;;;;;3.67;3.03;;;;;;;;;;4830439;29;32748;-73
2022/01/10 11:48:17;;;;;;;3.65;2.97;;;;;;;;;;4830153;29;35835;-72
2022/01/10 11:50:47;;;;;;;3.75;3.05;;;;;;;;;;4829967;29;32628;-72
2022/01/10 11:53:16;;;;;;;5.22;3.28;;;;;;;;;;4829646;29;32330;-71
2022/01/10 11:55:53;;;;;;;6.95;3.40;;;;;;;;;;4830140;29;32518;-72
2022/01/10 11:58:24;;;;;;;5.10;3.25;;;;;;;;;;4830565;29;35473;-70
2022/01/10 12:01:05;;;;;;;3.45;2.92;;;;;;;;;;4829986;29;32581;-71
2022/01/10 12:03:34;;;;;;;2.97;2.70;;;;;;;;;;4830337;29;32243;-71
2022/01/10 12:06:03;;;;;;;4.10;2.92;;;;;;;;;;4837204;29;32390;-71
2022/01/10 12:08:31;;;;;;;3.25;2.95;;;;;;;;;;4849284;29;32297;-71
2022/01/10 12:11:01;;;;;;;4.35;2.90;;;;;;;;;;4833097;29;34247;-70
2022/01/10 12:13:30;;;;;;;3.42;2.70;;;;;;;;;;4829823;29;32613;-71
2022/01/10 12:16:00;;;;;;;2.40;2.20;;;;;;;;;;4830483;29;32333;-72
2022/01/10 12:18:31;;;;;;;3.25;2.55;;;;;;;;;;4830641;29;32538;-72
2022/01/10 12:20:59;;;;;;;3.33;2.13;;;;;;;;;;4829519;29;34246;-73
2022/01/10 12:23:28;;;;;;;1.95;1.75;;;;;;;;;;4830182;29;32722;-71
2022/01/10 12:25:56;;;;;;;2.80;2.22;;;;;;;;;;4829804;29;32534;-72
2022/01/10 12:28:25;;;;;;;2.65;2.45;;;;;;;;;;4829944;29;32736;-73
2022/01/10 12:30:54;;;;;;;3.00;2.80;;;;;;;;;;4829450;29;32397;-72
2022/01/10 12:33:22;;;;;;;2.53;2.33;;;;;;;;;;4830383;29;35414;-72
2022/01/10 12:35:50;;;;;;;2.83;2.40;;;;;;;;;;4830082;29;32515;-72
2022/01/10 12:38:21;;;;;;;2.30;2.10;;;;;;;;;;4829955;29;32376;-72
2022/01/10 12:40:52;;;;;;;2.97;2.78;;;;;;;;;;4830380;29;32238;-71
2022/01/10 12:43:20;;;;;;;3.15;2.33;;;;;;;;;;4829785;29;34315;-71
2022/01/10 12:45:49;;;;;;;2.58;2.38;;;;;;;;;;4829906;29;32516;-71
2022/01/10 12:48:17;;;;;;;3.70;2.92;;;;;;;;;;4828154;29;32442;-72
2022/01/10 12:50:51;;;;;;;5.13;2.72;;;;;;;;;;4829705;29;32395;-72
2022/01/10 12:53:20;;;;;;;2.25;2.05;;;;;;;;;;4829612;29;32336;-71
2022/01/10 12:55:49;;;;;;;2.33;2.13;;;;;;;;;;4829632;29;34062;-72
2022/01/10 12:58:18;;;;;;;2.35;2.15;;;;;;;;;;4829568;29;32508;-73
2022/01/10 13:00:46;;;;;;;2.58;2.38;;;;;;;;;;4829584;29;32364;-71
2022/01/10 13:03:14;;;;;;;2.63;2.42;;;;;;;;;;4830306;29;32394;-73
2022/01/10 13:05:42;;;;;;;2.80;2.60;;;;;;;;;;4829380;29;34388;-71
2022/01/10 13:08:10;;;;;;;2.50;2.30;;;;;;;;;;4827598;29;32606;-71
2022/01/10 13:10:39;;;;;;;4.03;2.22;;;;;;;;;;4829325;29;32414;-72
2022/01/10 13:13:10;;;;;;;2.58;2.38;;;;;;;;;;4829537;29;32419;-72
2022/01/10 13:15:43;;;;;;;2.40;2.30;;;;;;;;;;4848218;29;32399;-72
2022/01/10 13:18:13;;;;;;;2.70;2.50;;;;;;;;;;4847155;29;33896;-72
2022/01/10 13:20:43;;;;;;;2.78;2.58;;;;;;;;;;4845574;29;32444;-71
2022/01/10 13:23:13;;;;;;;3.55;3.25;;;;;;;;;;4847499;29;32441;-74
2022/01/10 13:25:45;;;;;;;3.35;3.05;;;;;;;;;;4848149;29;32547;-73
2022/01/10 13:28:15;;;;;;;3.90;3.60;;;;;;;;;;4847875;29;34453;-73
2022/01/10 13:30:53;;;;;;;3.97;3.45;;;;;;;;;;4847600;29;32505;-72
2022/01/10 13:33:22;;;;;;;4.15;3.70;;;;;;;;;;4847700;29;32337;-71
2022/01/10 13:35:57;;;;;;;4.03;3.65;;;;;;;;;;4848037;29;32438;-72
2022/01/10 13:38:27;;;;;;;3.67;3.38;;;;;;;;;;4846465;29;32356;-73
2022/01/10 13:40:57;;;;;;;6.35;3.92;;;;;;;;;;4847147;29;35052;-72
2022/01/10 13:43:31;;;;;;;4.00;3.70;;;;;;;;;;4847812;29;32379;-72
2022/01/10 13:46:06;;;;;;;5.78;4.10;;;;;;;;;;4847469;29;32446;-72
2022/01/10 13:48:41;;;;;;;4.18;3.78;;;;;;;;;;4847932;29;32328;-72
2022/01/10 13:51:12;;;;;;;4.70;4.05;;;;;;;;;;4848186;29;34526;-72
2022/01/10 13:53:50;;;;;;;5.45;3.50;;;;;;;;;;4847121;29;32659;-75
2022/01/10 13:56:20;;;;;;;4.53;4.13;;;;;;;;;;4847507;29;32512;-72
2022/01/10 13:58:52;;;;;;;5.40;3.67;;;;;;;;;;4847738;29;32225;-71
2022/01/10 14:01:27;;;;;;;4.88;4.47;;;;;;;;;;4846077;29;32782;-72
2022/01/10 14:03:59;;;;;;;5.20;4.45;;;;;;;;;;4847366;29;33928;-72
2022/01/10 14:06:31;;;;;;;4.85;4.45;;;;;;;;;;4847288;29;32346;-72
2022/01/10 14:09:02;;;;;;;7.65;4.90;;;;;;;;;;4847034;29;32414;-72
2022/01/10 14:11:32;;;;;;;5.82;5.15;;;;;;;;;;4847483;29;32233;-72
2022/01/10 14:14:01;;;;;;;6.07;5.60;;;;;;;;;;4846648;29;34833;-73
2022/01/10 14:16:36;;;;;;;5.63;5.13;;;;;;;;;;4846865;29;32767;-71
2022/01/10 14:19:06;;;;;;;5.75;5.03;;;;;;;;;;4846835;29;32352;-71
2022/01/10 14:21:34;;;;;;;7.35;5.35;;;;;;;;;;4846500;29;32284;-71
2022/01/10 14:24:02;;;;;;;6.50;5.88;;;;;;;;;;4841046;29;33083;-74
2022/01/10 14:26:30;;;;;;;7.70;4.55;;;;;;;;;;4845901;29;35384;-70
2022/01/10 14:29:01;;;;;;;5.50;5.00;;;;;;;;;;4844827;29;32382;-70
2022/01/10 14:31:31;;;;;;;6.67;5.37;;;;;;;;;;4839398;29;32565;-71
2022/01/10 14:34:00;;;;;;;5.85;5.45;;;;;;;;;;4838235;29;32426;-71
2022/01/10 14:36:28;;;;;;;7.18;5.78;;;;;;;;;;4837558;29;35995;-73
2022/01/10 14:38:56;;;;;;;5.82;5.22;;;;;;;;;;4836782;29;32507;-73
2022/01/10 14:41:26;;;;;;;5.75;5.35;;;;;;;;;;4830445;29;32419;-72
2022/01/10 14:43:54;;;;;;;5.82;5.32;;;;;;;;;;4831908;29;32523;-75
2022/01/10 14:46:23;;;;;;;6.72;5.90;;;;;;;;;;4834592;29;32382;-75
2022/01/10 14:48:52;;;;;;;6.80;6.20;;;;;;;;;;4838952;29;34743;-73
2022/01/10 14:51:21;;;;;;;6.88;5.57;;;;;;;;;;4839761;29;32627;-74
2022/01/10 14:53:49;;;;;;;6.32;5.72;;;;;;;;;;4839058;29;32602;-76
2022/01/10 14:56:17;;;;;;;7.30;5.40;;;;;;;;;;4837980;29;32544;-71
2022/01/10 14:58:45;;;;;;;5.97;5.50;;;;;;;;;;4834163;29;34237;-70
2022/01/10 15:01:15;;;;;;;7.18;6.53;;;;;;;;;;4835338;29;32612;-71
2022/01/10 15:03:44;;;;;;;6.18;5.63;;;;;;;;;;4835948;29;32539;-71
2022/01/10 15:06:14;;;;;;;5.90;5.40;;;;;;;;;;4832052;29;32401;-74